Time;durP1;ratioP1;P1;durP2;ratioP2;P2;SDS_P1;SDS_P2;PMS_P1;PMS_P2;Temp;Humidity;BMP_temperature;BMP_pressure;BME280_temperature;BME280_humidity;BME280_pressure;Samples;Min_cycle;Max_cycle;Signal;HPM_P1;HPM_P2
2021/10/28 00:14:41;;;;;;;5.95;5.30;;;;;;;12.19;78.25;101649.11;1681974;85;21065;-70
2021/10/28 00:17:11;;;;;;;5.92;5.33;;;;;;;12.20;78.26;101656.02;1675343;83;20891;-70
2021/10/28 00:19:40;;;;;;;8.50;5.67;;;;;;;12.18;78.26;101652.14;1683798;83;21426;-70
2021/10/28 00:22:09;;;;;;;9.33;5.42;;;;;;;12.19;78.29;101651.27;1686635;84;20950;-70
2021/10/28 00:24:35;;;;;;;5.87;5.28;;;;;;;12.19;78.28;101654.30;1686399;83;20894;-70
2021/10/28 00:27:01;;;;;;;7.50;5.70;;;;;;;12.19;78.27;101653.00;1685098;83;20955;-70
2021/10/28 00:29:28;;;;;;;9.73;5.50;;;;;;;12.18;78.29;101654.73;1686729;83;20949;-70
2021/10/28 00:31:56;;;;;;;5.65;4.75;;;;;;;12.19;78.28;101655.59;1700922;83;28037;-70
2021/10/28 00:34:22;;;;;;;5.58;4.47;;;;;;;12.18;78.28;101653.87;1689571;83;20981;-70
2021/10/28 00:36:49;;;;;;;5.73;5.03;;;;;;;12.18;78.28;101653.87;1685627;83;21005;-70
2021/10/28 00:39:16;;;;;;;6.70;5.00;;;;;;;12.17;78.28;101658.20;1684905;83;20925;-70
2021/10/28 00:41:42;;;;;;;;;;;;;;;12.17;78.29;101654.74;1687372;85;20961;-70
2021/10/28 00:44:10;;;;;;;9.50;4.55;;;;;;;12.17;78.30;101649.12;1686690;85;20130;-70
2021/10/28 00:46:39;;;;;;;6.97;5.53;;;;;;;12.17;78.29;101642.64;1689116;83;20926;-70
2021/10/28 00:49:08;;;;;;;6.55;4.83;;;;;;;12.18;78.32;101647.39;1684630;83;20925;-70
2021/10/28 00:51:35;;;;;;;5.95;4.62;;;;;;;12.17;78.28;101647.83;1686515;85;20970;-70
2021/10/28 00:54:01;;;;;;;6.10;4.95;;;;;;;12.18;78.29;101644.80;1687019;85;20918;-70
2021/10/28 00:56:32;;;;;;;8.03;5.10;;;;;;;12.17;78.29;101642.64;1684210;83;21439;-70
2021/10/28 00:58:57;;;;;;;6.12;4.65;;;;;;;12.17;78.29;101640.48;1687697;83;20969;-70
2021/10/28 01:01:23;;;;;;;7.43;5.67;;;;;;;12.17;78.29;101640.05;1703396;83;20949;-70
2021/10/28 01:03:49;;;;;;;8.18;6.03;;;;;;;12.16;78.28;101636.17;1686193;83;21579;-70
2021/10/28 01:06:16;;;;;;;6.20;5.60;;;;;;;12.15;78.29;101635.73;1683512;83;21005;-70
2021/10/28 01:08:44;;;;;;;11.68;6.75;;;;;;;12.14;78.32;101637.47;1658948;85;21064;-70
2021/10/28 01:11:13;;;;;;;9.55;6.50;;;;;;;12.14;78.31;101634.02;1685111;83;21069;-70
2021/10/28 01:13:40;;;;;;;8.43;6.08;;;;;;;12.15;78.31;101640.92;1682512;83;21056;-70
2021/10/28 01:16:08;;;;;;;9.03;6.95;;;;;;;12.15;78.31;101634.01;1686406;85;21461;-70
2021/10/28 01:18:36;;;;;;;8.55;6.47;;;;;;;12.15;78.29;101633.15;1681982;84;20976;-70
2021/10/28 01:21:06;;;;;;;9.70;6.70;;;;;;;12.13;78.31;101628.41;1683939;83;21116;-70
2021/10/28 01:23:34;;;;;;;12.05;6.28;;;;;;;12.11;78.31;101636.19;1683770;84;21069;-70
2021/10/28 01:26:05;;;;;;;8.68;6.78;;;;;;;12.12;78.35;101640.95;1687776;84;20886;-70
2021/10/28 01:28:34;;;;;;;8.00;6.28;;;;;;;12.12;78.34;101638.35;1687681;85;20914;-70
2021/10/28 01:31:08;;;;;;;10.72;6.28;;;;;;;12.13;78.34;101642.23;1683752;84;20950;-70
2021/10/28 01:33:47;;;;;;;10.58;6.85;;;;;;;12.12;78.34;101639.21;1683578;84;21129;-70
2021/10/28 01:36:17;;;;;;;10.50;7.22;;;;;;;12.13;78.31;101640.08;1679513;84;20989;-70
2021/10/28 01:38:42;;;;;;;9.93;7.75;;;;;;;12.12;78.30;101638.35;1670999;84;21451;-70
2021/10/28 01:41:08;;;;;;;8.50;6.97;;;;;;;12.09;78.30;101637.07;1683747;84;21072;-70
2021/10/28 01:43:35;;;;;;;10.90;7.97;;;;;;;12.08;78.33;101637.94;1685151;85;20997;-70
2021/10/28 01:46:01;;;;;;;;;;;;;;;12.06;78.34;101639.25;1690066;84;21426;-70
2021/10/28 01:48:28;;;;;;;8.90;6.72;;;;;;;12.06;78.37;101639.68;1693251;84;20138;-70
2021/10/28 01:50:57;;;;;;;9.53;7.00;;;;;;;12.06;78.36;101643.56;1693066;84;20926;-70
2021/10/28 01:53:23;;;;;;;8.47;7.67;;;;;;;12.05;78.37;101640.11;1692380;84;20862;-70
2021/10/28 01:55:49;;;;;;;10.53;7.37;;;;;;;12.05;78.35;101639.25;1689582;84;21616;-70
2021/10/28 01:58:21;;;;;;;8.15;7.08;;;;;;;12.04;78.36;101646.17;1684214;84;20893;-70
2021/10/28 02:00:44;;;;;;;8.35;7.45;;;;;;;12.04;78.39;101647.91;1685303;84;20945;-70
2021/10/28 02:03:10;;;;;;;8.70;6.90;;;;;;;12.03;78.38;101641.86;1687511;85;20922;-70
2021/10/28 02:05:37;;;;;;;9.30;7.42;;;;;;;12.04;78.37;101651.79;1683003;84;20867;-70
2021/10/28 02:08:04;;;;;;;10.77;7.83;;;;;;;12.04;78.39;101653.09;1687812;85;20866;-70
2021/10/28 02:10:30;;;;;;;10.48;7.97;;;;;;;12.04;78.39;101650.06;1687740;85;20961;-70
2021/10/28 02:12:56;;;;;;;9.77;7.80;;;;;;;12.04;78.37;101642.72;1689230;84;20886;-70
2021/10/28 02:15:24;;;;;;;9.78;7.17;;;;;;;12.04;78.41;101646.17;1689831;84;21406;-70
2021/10/28 02:17:53;;;;;;;8.35;7.53;;;;;;;12.05;78.41;101645.73;1681029;85;20907;-70
2021/10/28 02:20:20;;;;;;;8.57;7.40;;;;;;;12.04;78.39;101639.69;1680729;84;21525;-70
2021/10/28 02:22:47;;;;;;;9.58;7.45;;;;;;;12.04;78.37;101650.06;1697005;83;20965;-70
2021/10/28 02:25:14;;;;;;;10.48;7.87;;;;;;;12.03;78.37;101646.17;1690433;83;21494;-70
2021/10/28 02:27:41;;;;;;;11.35;7.85;;;;;;;12.02;78.41;101647.91;1686773;85;20918;-70
2021/10/28 02:30:12;;;;;;;7.37;6.75;;;;;;;12.03;78.42;101646.17;1683571;83;20903;-70
2021/10/28 02:32:38;;;;;;;10.55;8.40;;;;;;;12.02;78.39;101649.64;1674505;83;20858;-70
2021/10/28 02:35:05;;;;;;;10.00;8.03;;;;;;;12.03;78.40;101656.55;1680391;83;21588;-70
2021/10/28 02:37:36;;;;;;;8.68;7.72;;;;;;;12.02;78.42;101653.09;1680257;85;20977;-70
2021/10/28 02:40:02;;;;;;;8.68;7.75;;;;;;;12.02;78.43;101658.28;1694946;83;20890;-70
2021/10/28 02:42:29;;;;;;;9.73;8.10;;;;;;;12.01;78.41;101659.14;1665371;85;21379;-70
2021/10/28 02:44:55;;;;;;;8.53;7.60;;;;;;;12.01;78.43;101663.03;1685240;85;21415;-70
2021/10/28 02:47:21;;;;;;;8.33;7.53;;;;;;;12.00;78.43;101662.61;1672667;83;20881;-70
2021/10/28 02:49:47;;;;;;;9.93;7.37;;;;;;;12.01;78.43;101664.77;1684486;83;20977;-70
2021/10/28 02:52:12;;;;;;;9.47;8.03;;;;;;;12.00;78.42;101668.23;1683474;83;20883;-70
2021/10/28 02:54:38;;;;;;;8.40;7.53;;;;;;;11.98;78.45;101670.83;1692357;83;20902;-70
2021/10/28 02:57:07;;;;;;;9.20;8.30;;;;;;;11.98;78.42;101668.23;1691120;83;21592;-70
2021/10/28 02:59:34;;;;;;;9.13;7.97;;;;;;;11.99;78.41;101667.80;1688762;83;21418;-70
2021/10/28 03:02:00;;;;;;;;;;;;;;;11.98;78.43;101673.85;1688308;85;20962;-70
2021/10/28 03:04:26;;;;;;;9.95;8.60;;;;;;;11.96;78.50;101673.86;1683178;83;20201;-70
2021/10/28 03:06:53;;;;;;;8.87;7.53;;;;;;;11.96;78.43;101666.55;1687139;85;21449;-70
2021/10/28 03:09:21;;;;;;;;;;;;;;;11.83;78.46;101651.48;1686794;83;21863;-70
2021/10/28 03:11:50;;;;;;;8.78;7.87;;;;;;;11.95;78.52;101667.42;1680026;83;20577;-70
2021/10/28 03:14:21;;;;;;;10.48;8.23;;;;;;;11.92;78.46;101669.59;1679004;83;21545;-70
2021/10/28 03:27:23;;;;;;;9.13;8.03;;;;;;;11.87;78.49;101668.31;1690192;83;21537;-70
2021/10/28 03:29:50;;;;;;;8.38;7.53;;;;;;;11.86;78.51;101667.89;1696362;83;20949;-70
2021/10/28 03:32:15;;;;;;;9.57;8.50;;;;;;;11.87;78.48;101670.05;1686169;84;20957;-70
2021/10/28 03:34:43;;;;;;;10.87;8.40;;;;;;;11.87;78.51;101681.27;1696856;83;21509;-70
2021/10/28 03:37:16;;;;;;;9.58;7.20;;;;;;;11.86;78.49;101670.48;1682087;83;20917;-70
2021/10/28 03:47:51;;;;;;;11.50;9.28;;;;;;;11.86;78.53;101677.39;1689626;83;21398;-70
2021/10/28 03:50:30;;;;;;;10.10;8.83;;;;;;;11.84;78.49;101669.62;1686864;83;21517;-70
2021/10/28 04:19:47;;;;;;;10.78;8.75;;;;;;;11.78;78.51;101678.72;1645857;84;20913;-70
2021/10/28 04:29:19;;;;;;;11.97;10.45;;;;;;;11.77;78.47;101681.31;1692800;83;20967;-70
2021/10/28 04:31:45;;;;;;;12.23;10.00;;;;;;;11.76;78.46;101676.97;1693310;84;21567;-70
2021/10/28 04:34:12;;;;;;;11.85;10.70;;;;;;;11.75;78.48;101673.95;1692249;84;21983;-70
2021/10/28 04:36:39;;;;;;;16.23;10.48;;;;;;;11.74;78.48;101672.22;1701755;83;20889;-70
2021/10/28 04:39:10;;;;;;;15.15;10.68;;;;;;;11.73;78.49;101675.69;1693321;83;20981;-70
2021/10/28 04:41:38;;;;;;;16.15;11.53;;;;;;;11.72;78.48;101677.84;1686885;84;20892;-70
2021/10/28 04:44:08;;;;;;;12.20;10.98;;;;;;;11.72;78.48;101673.95;1674301;83;21910;-70
2021/10/28 04:46:33;;;;;;;14.73;11.53;;;;;;;11.70;78.49;101676.55;1678594;84;21410;-70
2021/10/28 04:49:01;;;;;;;12.28;10.98;;;;;;;11.69;78.47;101681.31;1666107;84;20906;-70
2021/10/28 04:51:27;;;;;;;13.30;11.77;;;;;;;11.69;78.48;101682.60;1666431;84;20942;-70
2021/10/28 04:53:53;;;;;;;14.40;11.30;;;;;;;11.68;78.46;101682.17;1681380;83;21487;-70
2021/10/28 04:56:19;;;;;;;;;;;;;;;11.58;78.47;101669.69;1691059;84;21379;-70
2021/10/28 04:58:45;;;;;;;10.87;9.83;;;;;;;11.68;78.48;101683.91;1683278;84;20126;-70
2021/10/28 05:01:11;;;;;;;13.10;10.80;;;;;;;11.66;78.47;101683.91;1693027;83;20969;-70
2021/10/28 05:03:38;;;;;;;12.10;10.80;;;;;;;11.66;78.47;101691.68;1683473;83;21053;-70
2021/10/28 05:06:04;;;;;;;12.87;11.57;;;;;;;11.66;78.45;101689.52;1677277;84;21345;-70
2021/10/28 05:08:36;;;;;;;13.55;11.88;;;;;;;11.65;78.47;101692.55;1698984;83;20946;-70
2021/10/28 05:11:03;;;;;;;17.60;11.68;;;;;;;11.65;78.48;101690.39;1691401;83;20925;-70
2021/10/28 05:13:31;;;;;;;15.18;12.20;;;;;;;11.65;78.49;101686.07;1669045;84;20973;-70
2021/10/28 05:15:59;;;;;;;16.55;12.25;;;;;;;11.63;78.43;101689.10;1678308;83;20945;-70
2021/10/28 05:18:26;;;;;;;13.60;12.25;;;;;;;11.62;78.46;101699.03;1703375;83;20882;-70
2021/10/28 05:20:54;;;;;;;12.90;11.40;;;;;;;11.60;78.43;101701.63;1702400;83;20957;-70
2021/10/28 05:23:21;;;;;;;14.60;11.90;;;;;;;11.58;78.46;101703.36;1693009;84;20906;-70
2021/10/28 05:25:48;;;;;;;15.30;12.20;;;;;;;11.55;78.42;101707.25;1692473;83;20974;-70
2021/10/28 05:28:20;;;;;;;15.23;12.35;;;;;;;11.55;78.48;101702.50;1690709;83;20905;-70
2021/10/28 05:30:45;;;;;;;13.77;12.20;;;;;;;11.54;78.48;101708.55;1682043;84;21003;-70
2021/10/28 05:33:11;;;;;;;13.37;11.97;;;;;;;11.53;78.50;101707.69;1693346;84;21000;-70
2021/10/28 05:35:37;;;;;;;14.37;12.37;;;;;;;11.53;78.49;101714.59;1693186;83;20882;-70
2021/10/28 05:38:03;;;;;;;12.63;11.03;;;;;;;11.53;78.51;101715.89;1694242;83;20901;-70
2021/10/28 05:40:30;;;;;;;13.83;11.87;;;;;;;11.53;78.49;101715.89;1680199;84;20953;-70
2021/10/28 05:42:56;;;;;;;14.93;11.60;;;;;;;11.52;78.51;101715.46;1689423;83;20925;-70
2021/10/28 05:45:23;;;;;;;13.65;11.28;;;;;;;11.50;78.48;101714.60;1687602;83;21442;-70
2021/10/28 05:47:49;;;;;;;;;;;;;;;11.50;78.48;101718.48;1695086;83;20941;-70
2021/10/28 05:50:20;;;;;;;14.87;12.03;;;;;;;11.46;78.44;101720.66;1689053;83;27236;-70
2021/10/28 05:52:47;;;;;;;17.32;12.75;;;;;;;11.43;78.47;101720.69;1682194;84;21346;-70
2021/10/28 05:55:14;;;;;;;17.50;13.35;;;;;;;11.42;78.48;101728.03;1665123;84;20988;-70
2021/10/28 05:57:39;;;;;;;;;;;;;;;11.40;78.50;101735.80;1699852;83;21104;-70
2021/10/28 06:00:09;;;;;;;15.23;11.87;;;;;;;11.40;78.57;101731.92;1683418;84;20159;-70
2021/10/28 06:02:35;;;;;;;17.05;12.15;;;;;;;11.38;78.51;101724.59;1690332;84;21069;-70
2021/10/28 06:05:03;;;;;;;17.90;13.13;;;;;;;11.37;78.51;101724.16;1690763;83;21108;-70
2021/10/28 06:07:30;;;;;;;16.37;13.38;;;;;;;11.36;78.53;101727.61;1688415;83;21052;-70
2021/10/28 06:09:56;;;;;;;16.35;12.50;;;;;;;11.38;78.55;101730.20;1679064;84;21735;-70
2021/10/28 06:12:24;;;;;;;17.82;12.30;;;;;;;11.39;78.55;101731.92;1689929;83;21064;-70
2021/10/28 06:14:50;;;;;;;19.67;13.32;;;;;;;11.38;78.50;101727.61;1688938;84;21095;-70
2021/10/28 06:17:18;;;;;;;18.87;13.77;;;;;;;11.36;78.52;101726.75;1691470;84;21100;-70
2021/10/28 06:19:45;;;;;;;17.27;13.10;;;;;;;11.38;78.55;101733.65;1696354;83;21092;-70
2021/10/28 06:22:11;;;;;;;21.02;14.80;;;;;;;11.38;78.54;101734.08;1688433;83;20977;-70
2021/10/28 06:24:37;;;;;;;17.73;13.63;;;;;;;11.38;78.50;101728.90;1689064;84;21011;-70
2021/10/28 06:27:05;;;;;;;20.43;14.25;;;;;;;11.37;78.53;101733.22;1677277;83;21065;-70
2021/10/28 06:29:31;;;;;;;20.65;14.25;;;;;;;11.39;78.55;101738.39;1676127;83;26832;-70
2021/10/28 06:31:57;;;;;;;17.63;14.30;;;;;;;11.39;78.57;101743.14;1662793;85;21569;-70
2021/10/28 06:34:32;;;;;;;14.20;11.75;;;;;;;11.40;78.55;101737.53;1681444;83;21068;-70
2021/10/28 06:37:00;;;;;;;14.33;12.03;;;;;;;11.39;78.57;101734.08;1681918;83;21154;-70
2021/10/28 06:39:22;;;;;;;14.50;11.88;;;;;;;11.41;78.55;101737.96;1663281;85;20883;-70
2021/10/28 06:41:48;;;;;;;14.70;12.13;;;;;;;11.40;78.58;101740.12;1700388;83;21466;-70
2021/10/28 06:44:14;;;;;;;13.63;12.23;;;;;;;11.42;78.58;101734.51;1664268;84;21061;-70
2021/10/28 06:46:40;;;;;;;14.80;11.12;;;;;;;11.42;78.56;101738.39;1695086;83;20969;-70
2021/10/28 06:49:06;;;;;;;16.67;12.10;;;;;;;11.42;78.59;101740.98;1660614;83;21031;-70
2021/10/28 06:51:39;;;;;;;16.97;12.45;;;;;;;11.45;78.62;101746.13;1681404;83;21100;-70
2021/10/28 06:54:40;;;;;;;14.65;12.13;;;;;;;11.46;78.59;101743.53;1676734;83;21541;-70
2021/10/28 07:04:20;;;;;;;16.57;13.15;;;;;;;11.51;78.60;101745.69;1798395;78;20984;-69
2021/10/28 07:06:46;;;;;;;14.87;12.83;;;;;;;11.52;78.64;101750.00;1815208;78;20846;-69
2021/10/28 07:09:20;;;;;;;14.47;12.35;;;;;;;11.56;78.64;101745.67;1812072;78;20865;-69
2021/10/28 07:11:52;;;;;;;14.80;12.43;;;;;;;11.61;78.69;101743.94;1806148;78;21331;-69
2021/10/28 07:14:13;;;;;;;18.45;13.32;;;;;;;11.68;78.67;101744.36;1793151;78;20866;-69
2021/10/28 07:16:48;;;;;;;15.80;13.03;;;;;;;11.74;78.58;101745.64;1815893;78;20905;-69
2021/10/28 07:19:31;;;;;;;15.38;13.22;;;;;;;11.80;78.62;101741.77;1802966;78;21409;-69
2021/10/28 07:24:37;;;;;;;15.53;12.98;;;;;;;11.89;78.55;101743.47;1819040;78;20905;-69
2021/10/28 08:15:38;;;;;;;18.80;15.60;;;;;;;12.62;78.44;101728.80;1626455;88;21130;-69
2021/10/28 08:18:03;;;;;;;22.13;16.95;;;;;;;12.70;78.36;101732.20;1699477;81;21425;-69
2021/10/28 08:21:24;;;;;;;21.68;16.10;;;;;;;12.77;78.37;101728.69;1690088;82;21060;-69
2021/10/28 08:28:45;;;;;;;23.35;15.80;;;;;;;12.97;78.22;101727.68;1699429;83;21505;-69
2021/10/28 08:31:11;;;;;;;23.60;16.93;;;;;;;12.98;78.21;101725.51;1695424;84;20958;-69
2021/10/28 08:33:37;;;;;;;23.15;17.80;;;;;;;13.02;78.22;101731.07;1715341;82;21064;-69
2021/10/28 08:36:11;;;;;;;28.97;19.17;;;;;;;13.05;78.19;101725.85;1697276;84;21032;-69
2021/10/28 08:38:41;;;;;;;27.32;18.95;;;;;;;13.06;78.12;101728.87;1699189;82;20957;-69
2021/10/28 08:41:10;;;;;;;26.15;18.48;;;;;;;13.07;78.14;101728.00;1699556;83;21068;-69
2021/10/28 08:43:42;;;;;;;26.10;19.55;;;;;;;13.09;78.07;101726.25;1700975;83;20981;-69
2021/10/28 08:46:08;;;;;;;24.82;19.25;;;;;;;13.09;78.02;101719.33;1716090;82;20938;-69
2021/10/28 08:48:41;;;;;;;27.77;20.02;;;;;;;13.13;78.05;101727.95;1680292;83;21454;-69
2021/10/28 08:53:54;;;;;;;25.87;19.20;;;;;;;13.17;78.01;101725.34;1716659;83;21459;-69
2021/10/28 08:56:26;;;;;;;24.30;19.15;;;;;;;13.18;77.94;101724.91;1704832;83;20961;-69
2021/10/28 08:59:11;;;;;;;29.65;19.20;;;;;;;13.19;77.89;101722.30;1707001;83;20929;-69
2021/10/28 09:24:23;;;;;;;27.27;19.45;;;;;;;13.31;77.53;101703.14;1730158;81;20921;-69
2021/10/28 09:27:15;;;;;;;26.60;18.77;;;;;;;13.32;77.47;101702.27;1746840;81;20905;-69
2021/10/28 09:35:19;;;;;;;29.32;21.40;;;;;;;13.40;77.33;101705.65;1699914;83;20962;-69
2021/10/28 09:46:16;;;;;;;29.60;21.35;;;;;;;13.57;77.22;101710.20;1704528;82;22549;-69
2021/10/28 09:51:09;;;;;;;30.00;18.27;;;;;;;13.66;77.08;101709.24;1725373;82;21100;-69
2021/10/28 09:54:06;;;;;;;25.37;18.65;;;;;;;13.69;77.08;101705.30;1717244;82;21024;-69
2021/10/28 09:59:56;;;;;;;25.00;18.52;;;;;;;13.79;77.02;101706.92;1721700;82;21008;-69
2021/10/28 10:05:09;;;;;;;20.70;16.48;;;;;;;13.87;76.49;101697.30;1725465;82;20131;-69
2021/10/28 10:07:39;;;;;;;27.65;19.17;;;;;;;13.94;76.77;101696.78;1730805;82;21107;-69
2021/10/28 10:10:07;;;;;;;24.80;18.55;;;;;;;14.00;76.81;101695.84;1724749;82;21071;-69
2021/10/28 10:12:38;;;;;;;26.15;18.00;;;;;;;14.05;76.73;101697.47;1675458;84;21048;-69
2021/10/28 10:15:06;;;;;;;24.50;17.92;;;;;;;14.07;76.58;101698.31;1739694;82;21055;-69
2021/10/28 10:17:33;;;;;;;25.35;18.50;;;;;;;14.12;76.59;101700.42;1717613;82;20899;-69
2021/10/28 10:20:00;;;;;;;;;;;;;;;14.14;76.49;101697.36;1745777;82;21125;-69
2021/10/28 11:19:35;;;;;;;19.10;13.32;;;;;;;14.81;75.29;101650.80;1728044;81;21445;-69
2021/10/28 11:22:03;;;;;;;21.15;13.90;;;;;;;14.79;75.09;101642.16;1700202;82;20985;-69
2021/10/28 11:30:12;;;;;;;18.77;13.35;;;;;;;14.84;74.96;101636.44;1725039;82;20952;-69
2021/10/28 12:22:34;;;;;;;14.40;11.40;;;;;;;15.37;73.66;101568.11;1739731;82;20921;-69
2021/10/28 12:47:45;;;;;;;14.73;10.93;;;;;;;15.44;72.99;101556.67;1735112;82;21379;-69
2021/10/28 12:50:32;;;;;;;12.85;11.38;;;;;;;15.45;72.87;101553.62;1733367;82;21407;-69
2021/10/28 12:53:10;;;;;;;11.60;10.45;;;;;;;15.45;72.83;101547.09;1733989;82;20929;-69
2021/10/28 13:50:15;;;;;;;12.30;9.73;;;;;;;15.25;71.52;101521.45;1758611;80;20906;-69
2021/10/28 13:53:01;;;;;;;10.75;9.60;;;;;;;15.23;71.48;101518.02;1749329;80;21481;-69
2021/10/28 13:58:16;;;;;;;14.87;10.35;;;;;;;15.19;71.42;101514.63;1718312;80;20909;-68
2021/10/28 14:14:35;;;;;;;15.13;9.85;;;;;;;15.17;71.35;101519.00;1751187;80;21378;-69
2021/10/28 14:19:50;;;;;;;16.10;9.75;;;;;;;15.08;71.08;101507.47;1749228;80;21536;-69
2021/10/28 14:30:53;;;;;;;15.45;10.20;;;;;;;15.00;70.97;101505.49;1749332;81;21520;-69
2021/10/28 14:38:23;;;;;;;13.38;9.35;;;;;;;14.88;70.93;101505.29;1756829;81;20910;-68
2021/10/28 15:03:04;;;;;;;11.15;9.95;;;;;;;14.38;70.74;101485.84;1663760;84;21072;-70
2021/10/28 15:30:16;;;;;;;17.25;12.20;;;;;;;13.57;70.71;101463.77;1668056;85;21060;-70
2021/10/28 15:40:27;;;;;;;22.70;11.30;;;;;;;13.13;70.65;101463.93;1669575;85;21082;-70
2021/10/28 16:23:17;;;;;;;17.48;12.40;;;;;;;11.57;70.78;101459.87;1680079;84;21125;-70
2021/10/28 16:25:43;;;;;;;18.63;12.27;;;;;;;11.47;70.79;101457.77;1653732;85;21083;-70
2021/10/28 16:28:09;;;;;;;21.82;12.70;;;;;;;11.39;70.78;101452.25;1676963;84;21063;-70
2021/10/28 16:30:46;;;;;;;20.88;13.38;;;;;;;11.30;70.81;101452.30;1653261;84;21024;-70
2021/10/28 16:33:13;;;;;;;35.03;15.18;;;;;;;11.21;70.82;101448.89;1666188;83;21085;-70
2021/10/28 16:35:42;;;;;;;28.45;18.15;;;;;;;11.12;70.85;101451.52;1672592;84;20988;-70
2021/10/28 16:38:09;;;;;;;26.85;18.30;;;;;;;11.06;70.93;101450.25;1671907;84;21501;-70
2021/10/28 16:40:37;;;;;;;21.60;14.13;;;;;;;10.99;70.85;101447.27;1652350;85;20998;-70
2021/10/28 16:43:04;;;;;;;18.30;12.35;;;;;;;10.91;70.87;101442.15;1675360;85;21115;-70
2021/10/28 16:45:30;;;;;;;;;;;;;;;10.83;70.93;101440.02;1680259;85;20873;-70
2021/10/28 16:47:56;;;;;;;22.35;13.68;;;;;;;10.78;71.31;101441.77;1672842;85;20179;-70
2021/10/28 16:50:23;;;;;;;33.10;21.37;;;;;;;10.75;71.10;101435.74;1639011;85;20921;-70
2021/10/28 16:52:49;;;;;;;35.52;21.12;;;;;;;10.68;71.04;101448.27;1654277;84;21184;-71
2021/10/28 16:55:15;;;;;;;35.23;21.50;;;;;;;10.61;71.01;101443.55;1672770;85;21099;-71
2021/10/28 16:57:42;;;;;;;32.47;20.43;;;;;;;10.50;71.01;101440.13;1676970;84;21110;-71
2021/10/28 17:00:11;;;;;;;35.60;20.70;;;;;;;10.44;71.08;101435.83;1667177;85;21084;-71
2021/10/28 17:02:37;;;;;;;29.92;20.97;;;;;;;10.37;71.11;101436.73;1645080;84;21121;-71
2021/10/28 17:05:04;;;;;;;37.53;20.83;;;;;;;10.32;71.17;101432.44;1672525;84;21092;-71
2021/10/28 17:07:31;;;;;;;33.50;20.68;;;;;;;10.27;71.15;101433.73;1673857;84;21040;-71
2021/10/28 17:09:59;;;;;;;34.63;21.27;;;;;;;10.22;71.21;101432.88;1664647;84;20989;-71
2021/10/28 17:12:25;;;;;;;33.55;20.90;;;;;;;10.14;71.17;101432.86;1665599;84;21123;-71
2021/10/28 17:14:52;;;;;;;48.83;25.90;;;;;;;10.03;71.16;101437.60;1655357;85;21110;-71
2021/10/28 17:17:18;;;;;;;;;;;;;;;10.03;71.16;101437.60;1674622;85;21416;-71
2021/10/28 17:19:46;;;;;;;46.15;28.23;;;;;;;9.98;71.46;101441.48;1676078;85;20149;-71
2021/10/28 17:22:14;;;;;;;74.75;40.90;;;;;;;9.93;71.28;101437.60;1659283;84;21107;-69
2021/10/28 17:24:48;;;;;;;;;;;;;;;9.85;71.25;101435.91;1675457;84;21079;-69
2021/10/28 17:27:14;;;;;;;64.00;38.78;;;;;;;9.79;71.48;101443.23;1678041;84;20470;-69
2021/10/28 17:29:41;;;;;;;74.17;43.28;;;;;;;9.74;71.36;101437.20;1676090;85;21465;-69
2021/10/28 17:32:08;;;;;;;54.80;31.75;;;;;;;9.70;71.36;101431.59;1667763;84;21063;-69
2021/10/28 17:34:35;;;;;;;47.00;29.82;;;;;;;9.66;71.39;101433.75;1659555;84;21122;-69
2021/10/28 17:37:03;;;;;;;57.23;33.67;;;;;;;9.59;71.39;101432.88;1684198;84;21131;-69
2021/10/28 17:39:30;;;;;;;63.70;36.95;;;;;;;9.56;71.51;101430.72;1678290;84;21051;-69
2021/10/28 17:41:59;;;;;;;73.07;39.83;;;;;;;9.51;71.49;101431.14;1677882;85;21505;-69
2021/10/28 17:44:43;;;;;;;101.38;57.80;;;;;;;9.47;71.55;101428.98;1677414;85;20969;-69
2021/10/28 17:47:06;;;;;;;143.95;84.28;;;;;;;9.46;71.66;101428.98;1649302;85;20886;-69
2021/10/28 17:49:32;;;;;;;;;;;;;;;9.44;71.71;101427.69;1682021;84;20973;-69
2021/10/28 17:51:59;;;;;;;182.30;114.32;;;;;;;9.42;71.98;101425.53;1683746;84;20113;-69
2021/10/28 17:54:25;;;;;;;;;;;;;;;9.40;71.83;101427.68;1682924;84;20956;-69
2021/10/28 17:56:51;;;;;;;131.57;82.97;;;;;;;9.35;71.93;101423.83;1675889;84;20171;-69
2021/10/28 17:59:18;;;;;;;125.95;78.62;;;;;;;9.28;71.75;101420.37;1673223;84;21170;-69
2021/10/28 18:01:44;;;;;;;90.00;60.50;;;;;;;9.24;71.75;101419.94;1675810;84;20940;-69
2021/10/28 18:04:11;;;;;;;47.20;29.40;;;;;;;9.17;71.74;101420.77;1679129;84;20909;-69
2021/10/28 18:06:37;;;;;;;41.83;29.43;;;;;;;9.09;71.71;101421.61;1677641;84;20952;-69
2021/10/28 18:09:05;;;;;;;46.73;31.55;;;;;;;9.03;71.81;101431.91;1668664;85;20948;-69
2021/10/28 18:11:32;;;;;;;56.08;37.25;;;;;;;8.98;71.83;101428.02;1651849;86;20912;-69
2021/10/28 18:13:59;;;;;;;64.67;41.58;;;;;;;8.92;71.85;101418.97;1655967;83;21465;-69
2021/10/28 18:16:27;;;;;;;58.17;41.70;;;;;;;8.88;71.91;101415.95;1668789;85;20920;-69
2021/10/28 18:18:58;;;;;;;50.48;36.75;;;;;;;8.84;71.94;101420.66;1658440;84;20948;-69
2021/10/28 18:21:26;;;;;;;94.03;50.40;;;;;;;8.80;71.94;101415.95;1678224;85;20948;-69
2021/10/28 18:23:56;;;;;;;74.37;43.40;;;;;;;8.77;72.01;101410.78;1675052;84;20952;-69
2021/10/28 18:26:24;;;;;;;77.15;45.05;;;;;;;8.74;72.07;101410.77;1674625;85;20940;-69
2021/10/28 18:28:51;;;;;;;61.45;39.42;;;;;;;8.74;72.10;101417.20;1667576;85;20952;-69
2021/10/28 18:31:17;;;;;;;52.35;34.30;;;;;;;8.71;72.07;101406.02;1662592;84;20912;-68
2021/10/28 18:33:45;;;;;;;42.85;26.62;;;;;;;8.69;72.17;101401.28;1674426;85;21468;-71
2021/10/28 18:36:13;;;;;;;42.58;25.17;;;;;;;8.67;72.18;101401.70;1672741;85;20944;-68
2021/10/28 18:38:45;;;;;;;38.75;24.27;;;;;;;8.65;72.19;101409.86;1658745;85;20909;-67
2021/10/28 18:41:08;;;;;;;34.20;23.80;;;;;;;8.62;72.21;101406.41;1670641;84;20960;-67
2021/10/28 18:43:34;;;;;;;32.67;23.22;;;;;;;8.60;72.26;101404.68;1676666;85;20916;-67
2021/10/28 18:46:01;;;;;;;34.13;23.55;;;;;;;8.58;72.25;101402.52;1676329;85;20964;-67
2021/10/28 18:48:28;;;;;;;37.83;23.87;;;;;;;8.53;72.27;101393.91;1678371;85;20937;-67
2021/10/28 18:50:55;;;;;;;37.15;23.32;;;;;;;8.50;72.39;101396.04;1677185;84;21477;-67
2021/10/28 18:53:23;;;;;;;36.60;24.30;;;;;;;8.49;72.42;101389.59;1677538;84;21042;-67
2021/10/28 18:55:49;;;;;;;41.92;25.43;;;;;;;8.47;72.41;101388.29;1677471;84;20964;-67
2021/10/28 18:58:15;;;;;;;41.20;25.90;;;;;;;8.45;72.45;101386.13;1672775;85;20944;-67
2021/10/28 19:00:42;;;;;;;42.67;26.62;;;;;;;8.45;72.59;101382.27;1677050;85;21043;-67
2021/10/28 19:03:10;;;;;;;38.67;24.27;;;;;;;8.46;72.62;101379.27;1673347;84;21463;-68
2021/10/28 19:05:37;;;;;;;41.25;25.30;;;;;;;8.47;72.69;101369.39;1674731;84;21441;-68
2021/10/28 19:08:04;;;;;;;38.98;25.08;;;;;;;8.49;72.81;101368.54;1675996;85;21121;-68
2021/10/28 19:10:30;;;;;;;42.00;25.82;;;;;;;8.52;72.84;101363.40;1677676;85;21432;-68
2021/10/28 19:12:57;;;;;;;45.08;26.35;;;;;;;8.54;72.85;101362.98;1669717;84;20873;-67
2021/10/28 19:15:23;;;;;;;43.43;26.90;;;;;;;8.58;72.91;101363.42;1676535;85;20873;-67
2021/10/28 19:17:51;;;;;;;44.63;28.00;;;;;;;8.59;72.96;101360.42;1675138;84;20924;-67
2021/10/28 19:20:17;;;;;;;44.27;27.75;;;;;;;8.62;73.02;101360.01;1679773;84;20912;-67
2021/10/28 19:22:43;;;;;;;45.15;27.27;;;;;;;8.65;73.06;101359.59;1649112;85;20969;-67
2021/10/28 19:25:10;;;;;;;46.60;28.57;;;;;;;8.67;73.05;101357.45;1659603;85;20960;-67
2021/10/28 19:27:38;;;;;;;49.27;28.20;;;;;;;8.68;73.08;101359.59;1674792;84;20890;-67
2021/10/28 19:32:55;;;;;;;57.43;32.98;;;;;;;8.63;73.09;101350.12;1682611;84;20956;-67
2021/10/28 19:35:23;;;;;;;52.40;29.85;;;;;;;8.61;73.09;101354.42;1654684;85;20928;-67
2021/10/28 19:38:45;;;;;;;48.33;28.15;;;;;;;8.61;73.21;101354.42;1682198;83;20898;-67
2021/10/28 19:40:36;;;;;;;43.35;28.70;;;;;;;8.61;73.19;101349.27;1665974;84;21444;-67
2021/10/28 19:46:09;;;;;;;43.92;26.57;;;;;;;8.58;73.28;101344.52;1677860;85;20979;-67